Time;durP1;ratioP1;P1;durP2;ratioP2;P2;SDS_P1;SDS_P2;PMS_P1;PMS_P2;Temp;Humidity;BMP_temperature;BMP_pressure;BME280_temperature;BME280_humidity;BME280_pressure;Samples;Min_cycle;Max_cycle;Signal;HPM_P1;HPM_P2
2021/01/18 00:01:26;;;;;;;34.03;24.10;;;;;;;-2.09;100.00;98480.19;5004078;28;20213;-72
2021/01/18 00:03:53;;;;;;;29.30;24.50;;;;;;;-2.08;100.00;98478.47;5005213;28;20207;-73
2021/01/18 00:06:21;;;;;;;35.27;25.97;;;;;;;-1.98;100.00;98481.47;5008194;28;20537;-73
2021/01/18 00:08:48;;;;;;;34.83;25.57;;;;;;;-2.08;100.00;98478.47;5006879;28;20302;-73
2021/01/18 00:11:16;;;;;;;33.63;24.53;;;;;;;-2.14;100.00;98479.59;5006592;28;20444;-73
2021/01/18 00:13:44;;;;;;;28.13;22.47;;;;;;;-2.20;100.00;98482.47;5005947;28;21020;-73
2021/01/18 00:16:12;;;;;;;35.37;24.83;;;;;;;-2.18;100.00;98480.66;5003704;28;20720;-72
2021/01/18 00:18:41;;;;;;;31.03;24.40;;;;;;;-2.01;100.00;98474.66;5005942;28;20220;-72
2021/01/18 00:21:08;;;;;;;34.90;24.97;;;;;;;-1.97;100.00;98483.97;5001912;28;20230;-72
2021/01/18 00:23:36;;;;;;;34.63;25.07;;;;;;;-1.98;100.00;98478.88;5002662;28;20205;-73
2021/01/18 00:26:04;;;;;;;35.40;25.40;;;;;;;-1.99;100.00;98469.41;5006150;28;20230;-73
2021/01/18 00:28:32;;;;;;;32.97;24.50;;;;;;;-1.96;100.00;98474.44;5005761;28;20460;-72
2021/01/18 00:30:59;;;;;;;33.93;23.40;;;;;;;-2.10;100.00;98470.72;5005106;28;20982;-73
2021/01/18 00:33:26;;;;;;;34.30;22.80;;;;;;;-2.10;100.00;98470.72;5004962;28;20316;-73
2021/01/18 00:35:56;;;;;;;29.27;23.47;;;;;;;-2.05;100.00;98465.34;5003428;28;20208;-73
2021/01/18 00:38:23;;;;;;;31.83;23.03;;;;;;;-2.16;100.00;98478.81;5004418;28;20776;-71
2021/01/18 00:40:50;;;;;;;35.00;24.43;;;;;;;-2.16;100.00;98481.41;5006836;28;20210;-72
2021/01/18 00:43:17;;;;;;;29.77;23.40;;;;;;;-2.05;100.00;98473.97;5004943;28;20225;-72
2021/01/18 00:45:44;;;;;;;33.60;23.80;;;;;;;-1.87;100.00;98474.00;5006147;28;20483;-72
2021/01/18 00:48:11;;;;;;;30.23;23.27;;;;;;;-2.07;100.00;98473.22;5005099;28;20204;-72
2021/01/18 00:50:38;;;;;;;32.50;21.93;;;;;;;-2.00;100.00;98468.53;5002841;28;20204;-73
2021/01/18 00:53:06;;;;;;;33.97;23.10;;;;;;;-1.85;100.00;98472.16;5003808;28;20483;-73
2021/01/18 00:55:33;;;;;;;29.37;22.10;;;;;;;-1.87;100.00;98473.19;5005186;28;20209;-73
2021/01/18 00:58:00;;;;;;;29.63;21.50;;;;;;;-1.64;100.00;98477.25;5004922;28;20680;-73
2021/01/18 01:00:29;;;;;;;27.63;19.97;;;;;;;-1.40;100.00;98471.75;5004529;28;20200;-73
2021/01/18 01:02:57;;;;;;;26.33;16.93;;;;;;;-1.29;100.00;98472.06;5004315;28;20481;-72
2021/01/18 01:05:26;;;;;;;25.73;18.00;;;;;;;-1.15;100.00;98473.13;5004253;28;20215;-72
2021/01/18 01:07:53;;;;;;;29.43;18.87;;;;;;;-1.09;100.00;98460.63;5003750;28;20240;-72
2021/01/18 01:10:22;;;;;;;24.87;17.33;;;;;;;-1.04;100.00;98466.44;5004831;28;20761;-71
2021/01/18 01:12:54;;;;;;;26.03;17.33;;;;;;;-0.92;100.00;98456.31;4999732;28;20260;-72
2021/01/18 01:15:21;;;;;;;27.43;17.43;;;;;;;-0.91;100.00;98460.59;5000731;28;20931;-72
2021/01/18 01:17:48;;;;;;;25.90;16.67;;;;;;;-0.90;100.00;98465.72;4996903;28;20208;-72
2021/01/18 01:20:16;;;;;;;27.30;17.33;;;;;;;-0.85;100.00;98472.47;4993183;28;20210;-73
2021/01/18 01:22:44;;;;;;;24.47;17.50;;;;;;;-0.80;100.00;98470.44;4999885;28;20319;-73
2021/01/18 01:25:12;;;;;;;29.33;18.53;;;;;;;-0.80;100.00;98479.09;4996949;28;20221;-72
2021/01/18 01:27:41;;;;;;;24.00;16.87;;;;;;;-0.75;100.00;98471.03;5000865;28;20781;-73
2021/01/18 01:30:10;;;;;;;24.10;16.47;;;;;;;-0.79;100.00;98464.31;5001681;28;20529;-73
2021/01/18 01:32:38;;;;;;;25.73;17.13;;;;;;;-0.81;100.00;98460.97;4999071;28;20234;-72
2021/01/18 01:35:06;;;;;;;23.73;16.17;;;;;;;-0.64;100.00;98454.88;5000461;28;20679;-72
2021/01/18 01:37:33;;;;;;;27.50;17.13;;;;;;;-0.58;100.00;98449.31;5004317;28;20211;-73
2021/01/18 01:40:00;;;;;;;29.13;17.37;;;;;;;-0.49;100.00;98461.00;5005644;28;20204;-72
2021/01/18 01:42:28;;;;;;;24.27;18.07;;;;;;;-0.51;100.00;98452.44;4996515;28;20582;-72
2021/01/18 01:44:55;;;;;;;27.63;16.40;;;;;;;-0.54;100.00;98460.44;5007028;28;20209;-72
2021/01/18 01:47:27;;;;;;;26.20;17.30;;;;;;;-0.48;100.00;98460.09;4996703;28;20236;-71
2021/01/18 01:49:55;;;;;;;25.73;17.77;;;;;;;-0.40;100.00;98459.66;5006754;28;20209;-72
2021/01/18 01:52:24;;;;;;;19.93;15.23;;;;;;;-0.47;100.00;98456.56;5011088;28;20228;-71
2021/01/18 01:54:53;;;;;;;21.97;16.73;;;;;;;-0.44;100.00;98466.81;5001986;28;20201;-73
2021/01/18 01:57:20;;;;;;;25.97;16.67;;;;;;;-0.40;100.00;98460.50;5009044;28;20444;-72
2021/01/18 01:59:47;;;;;;;27.07;17.37;;;;;;;-0.38;100.00;98473.44;5013851;28;20216;-73
2021/01/18 02:02:15;;;;;;;24.60;17.53;;;;;;;-0.37;100.00;98468.16;5009246;28;20247;-73
2021/01/18 02:04:42;;;;;;;25.37;17.63;;;;;;;-0.35;100.00;98471.50;5005432;28;20215;-73
2021/01/18 02:07:23;;;;;;;25.57;17.23;;;;;;;-0.35;100.00;98476.72;5007242;28;20230;-74
2021/01/18 02:09:50;;;;;;;23.67;17.67;;;;;;;-0.34;100.00;98477.56;4999274;28;20212;-73
2021/01/18 02:12:17;;;;;;;21.77;16.53;;;;;;;-0.36;100.00;98482.84;5005249;28;20475;-73
2021/01/18 02:14:52;;;;;;;31.70;17.93;;;;;;;-0.40;100.00;98475.28;5000704;28;20216;-73
2021/01/18 02:17:26;;;;;;;25.57;17.87;;;;;;;-0.35;100.00;98481.09;5007359;28;20210;-73
2021/01/18 02:20:52;;;;;;;29.27;18.03;;;;;;;-0.35;100.00;98476.72;5007488;28;20227;-73
2021/01/18 02:23:36;;;;;;;22.87;17.63;;;;;;;-0.40;100.00;98472.69;4924963;29;20818;-73
2021/01/18 02:26:05;;;;;;;24.77;16.10;;;;;;;-0.37;100.00;98480.34;5013766;28;20228;-73
2021/01/18 02:28:54;;;;;;;24.87;17.60;;;;;;;-0.39;100.00;98476.97;4994536;28;20205;-73
2021/01/18 02:31:38;;;;;;;24.70;16.20;;;;;;;-0.42;100.00;98479.72;5009553;28;20920;-72
2021/01/18 02:34:31;;;;;;;27.97;17.67;;;;;;;-0.39;100.00;98480.41;5004750;28;20197;-73
2021/01/18 02:37:13;;;;;;;25.60;17.27;;;;;;;-0.40;100.00;98480.50;5009913;28;20217;-72
2021/01/18 02:39:49;;;;;;;22.57;16.93;;;;;;;-0.44;100.00;98482.44;5000078;28;20596;-73
2021/01/18 02:42:20;;;;;;;26.00;17.67;;;;;;;-0.34;100.00;98482.78;5004980;28;20604;-73
2021/01/18 02:44:49;;;;;;;24.20;16.60;;;;;;;-0.40;100.00;98476.13;5011647;28;20207;-72
2021/01/18 02:47:16;;;;;;;22.77;17.30;;;;;;;-0.36;100.00;98482.84;5000433;28;20235;-73
2021/01/18 02:49:43;;;;;;;22.50;17.17;;;;;;;-0.34;100.00;98474.97;5007515;28;20216;-72
2021/01/18 02:52:13;;;;;;;19.77;15.97;;;;;;;-0.42;100.00;98477.13;5005947;28;20236;-73
2021/01/18 02:54:40;;;;;;;22.37;16.83;;;;;;;-0.40;100.00;98485.69;5004924;28;20208;-73
2021/01/18 02:57:11;;;;;;;19.63;15.73;;;;;;;-0.36;100.00;98471.63;5006549;28;20208;-72
2021/01/18 02:59:39;;;;;;;19.13;15.60;;;;;;;-0.24;100.00;98481.34;5007859;28;20215;-72
2021/01/18 03:02:15;;;;;;;21.00;14.87;;;;;;;-0.33;100.00;98490.50;5007588;28;20236;-73
2021/01/18 03:04:57;;;;;;;17.67;14.70;;;;;;;-0.38;100.00;98484.72;5011749;28;20264;-72
2021/01/18 03:07:31;;;;;;;19.57;15.53;;;;;;;-0.29;100.00;98483.38;5004145;28;20225;-71
2021/01/18 03:10:00;;;;;;;22.40;15.20;;;;;;;-0.32;100.00;98486.97;5011798;28;20218;-71
2021/01/18 03:12:30;;;;;;;21.57;15.30;;;;;;;-0.24;100.00;98488.31;5005640;28;20623;-71
2021/01/18 03:14:58;;;;;;;19.10;14.47;;;;;;;-0.21;100.00;98490.75;5007195;28;20243;-72
2021/01/18 03:17:27;;;;;;;19.67;15.50;;;;;;;-0.20;100.00;98500.25;5001732;28;20205;-71
2021/01/18 03:19:54;;;;;;;19.43;14.57;;;;;;;-0.22;100.00;98483.84;5006199;28;20321;-71
2021/01/18 03:22:22;;;;;;;17.50;14.67;;;;;;;-0.34;100.00;98486.22;5003975;28;20232;-71
2021/01/18 03:24:53;;;;;;;17.73;14.00;;;;;;;-0.41;100.00;98497.91;5006859;28;20251;-71
2021/01/18 03:27:20;;;;;;;15.63;13.23;;;;;;;-0.50;100.00;98493.19;5001772;28;20229;-72
2021/01/18 03:29:49;;;;;;;16.30;14.60;;;;;;;-0.61;100.00;98504.16;4998163;28;20661;-72
2021/01/18 03:32:16;;;;;;;16.37;14.17;;;;;;;-0.64;100.00;98497.34;5011468;28;20467;-71
2021/01/18 03:34:44;;;;;;;16.53;13.83;;;;;;;-0.70;100.00;98499.44;4995491;28;20345;-71
2021/01/18 03:37:11;;;;;;;15.27;12.57;;;;;;;-0.67;100.00;98500.09;5000307;28;20207;-72
2021/01/18 03:39:38;;;;;;;15.53;13.23;;;;;;;-0.65;100.00;98500.03;5005874;28;20207;-72
2021/01/18 03:42:06;;;;;;;17.30;13.53;;;;;;;-0.56;100.00;98498.72;5006268;28;20606;-72
2021/01/18 03:44:35;;;;;;;14.67;13.07;;;;;;;-0.46;100.00;98510.31;5002421;28;20208;-72
2021/01/18 03:47:03;;;;;;;16.47;13.00;;;;;;;-0.61;100.00;98507.59;5001938;28;20848;-73
2021/01/18 03:49:30;;;;;;;16.87;14.20;;;;;;;-0.50;100.00;98511.41;5012513;28;20725;-73
2021/01/18 03:51:57;;;;;;;15.50;12.40;;;;;;;-0.57;100.00;98505.69;4999728;28;20228;-73
2021/01/18 03:54:24;;;;;;;19.03;12.87;;;;;;;-0.53;100.00;98508.97;4998838;28;20201;-73
2021/01/18 03:56:51;;;;;;;14.13;12.63;;;;;;;-0.56;100.00;98515.16;5006837;28;20205;-72
2021/01/18 03:59:19;;;;;;;14.87;12.50;;;;;;;-0.55;100.00;98516.03;5006267;28;20209;-73
2021/01/18 04:01:46;;;;;;;15.40;12.60;;;;;;;-0.55;100.00;98513.44;5004541;28;20225;-73
2021/01/18 04:04:13;;;;;;;14.87;13.07;;;;;;;-0.52;100.00;98521.06;5002857;28;20245;-73
2021/01/18 04:06:40;;;;;;;15.83;13.17;;;;;;;-0.44;100.00;98524.09;4997672;28;20253;-73
2021/01/18 04:09:07;;;;;;;13.00;11.47;;;;;;;-0.49;100.00;98526.13;5001966;28;20213;-71
2021/01/18 04:11:34;;;;;;;17.13;13.07;;;;;;;-0.51;100.00;98523.56;5005006;28;20240;-73
2021/01/18 04:14:01;;;;;;;14.43;11.80;;;;;;;-0.52;100.00;98513.25;5013527;28;20232;-73
2021/01/18 04:16:29;;;;;;;15.90;12.60;;;;;;;-0.67;100.00;98510.53;4998583;28;20204;-73
2021/01/18 04:18:56;;;;;;;14.53;12.63;;;;;;;-0.78;100.00;98503.25;5009555;28;20668;-73
2021/01/18 04:21:23;;;;;;;13.63;12.23;;;;;;;-0.91;100.00;98517.84;4996486;28;20231;-73
2021/01/18 04:23:50;;;;;;;15.17;13.57;;;;;;;-0.91;100.00;98513.50;5005602;28;20216;-73
2021/01/18 04:26:17;;;;;;;17.23;14.47;;;;;;;-0.97;100.00;98528.56;4997858;28;20201;-73
2021/01/18 04:28:45;;;;;;;17.30;13.77;;;;;;;-0.96;100.00;98523.28;5005977;28;20294;-74
2021/01/18 04:31:12;;;;;;;15.07;13.43;;;;;;;-0.87;100.00;98532.38;5005084;28;20209;-73
2021/01/18 04:33:40;;;;;;;21.90;17.03;;;;;;;-0.77;100.00;98527.53;5008572;28;20260;-74
2021/01/18 04:36:07;;;;;;;19.50;16.67;;;;;;;-0.75;100.00;98528.31;4998253;28;20299;-75
2021/01/18 04:38:34;;;;;;;19.80;15.70;;;;;;;-0.70;100.00;98533.28;4999905;28;20205;-74
2021/01/18 04:41:01;;;;;;;23.10;16.57;;;;;;;-0.59;100.00;98534.38;4997382;28;20585;-72
2021/01/18 04:43:28;;;;;;;18.60;16.53;;;;;;;-0.63;100.00;98543.28;5007437;28;20239;-74
2021/01/18 04:45:55;;;;;;;20.87;16.17;;;;;;;-0.54;100.00;98543.75;4997744;28;20448;-75
2021/01/18 04:48:23;;;;;;;20.13;16.00;;;;;;;-0.55;100.00;98540.28;5000293;28;20237;-74
2021/01/18 04:50:51;;;;;;;19.67;16.00;;;;;;;-0.55;100.00;98542.06;5005015;28;20580;-76
2021/01/18 04:53:18;;;;;;;20.37;16.60;;;;;;;-0.40;100.00;98548.19;5010470;28;20220;-75
2021/01/18 04:55:59;;;;;;;21.83;15.90;;;;;;;-0.40;100.00;98545.59;5002653;28;20902;-74
2021/01/18 04:58:29;;;;;;;21.67;16.93;;;;;;;-0.48;100.00;98543.41;5007332;28;20444;-75
2021/01/18 05:00:56;;;;;;;19.17;17.10;;;;;;;-0.42;100.00;98540.47;4996995;28;20209;-75
2021/01/18 05:03:24;;;;;;;23.17;16.63;;;;;;;-0.38;100.00;98549.81;5007634;28;20235;-74
2021/01/18 05:06:44;;;;;;;20.17;16.40;;;;;;;-0.37;100.00;98550.66;5010996;28;20207;-75
2021/01/18 05:09:26;;;;;;;20.40;16.83;;;;;;;-0.22;100.00;98552.44;4993348;28;20281;-76
2021/01/18 05:11:53;;;;;;;21.67;16.93;;;;;;;-0.27;100.00;98556.22;5004181;28;20229;-76
2021/01/18 05:14:20;;;;;;;23.70;16.50;;;;;;;-0.43;100.00;98557.03;5001431;28;20711;-75
2021/01/18 05:16:53;;;;;;;18.80;15.20;;;;;;;-0.35;100.00;98559.25;4996650;28;20580;-75
2021/01/18 05:19:21;;;;;;;17.53;15.30;;;;;;;-0.46;100.00;98563.22;4999336;28;20208;-75
2021/01/18 05:21:50;;;;;;;20.13;15.23;;;;;;;-0.46;100.00;98562.41;4995083;28;20760;-75
2021/01/18 05:24:18;;;;;;;19.53;16.27;;;;;;;-0.42;100.00;98553.50;5003128;28;20201;-74
2021/01/18 05:27:01;;;;;;;20.63;15.83;;;;;;;-0.35;100.00;98559.25;5007063;28;20232;-75
2021/01/18 05:29:32;;;;;;;19.37;16.70;;;;;;;-0.39;100.00;98566.38;5003948;28;20328;-76
2021/01/18 05:31:59;;;;;;;16.87;15.07;;;;;;;-0.33;100.00;98568.63;5008621;28;20224;-75
2021/01/18 05:34:28;;;;;;;22.00;17.43;;;;;;;-0.20;100.00;98562.78;5004695;28;20296;-76
2021/01/18 05:36:56;;;;;;;17.53;15.30;;;;;;;-0.06;100.00;98573.31;5008265;28;20201;-75
2021/01/18 05:39:25;;;;;;;19.40;15.90;;;;;;;-0.15;100.00;98561.63;4999617;28;20220;-78
2021/01/18 05:41:53;;;;;;;19.43;17.33;;;;;;;-0.21;100.00;98568.91;5008714;28;20226;-79
2021/01/18 05:44:21;;;;;;;20.33;18.10;;;;;;;-0.28;100.00;98580.56;5008936;28;20197;-80
2021/01/18 05:46:50;;;;;;;20.17;17.67;;;;;;;-0.27;100.00;98574.44;5004923;28;20224;-79
2021/01/18 05:49:19;;;;;;;21.37;16.57;;;;;;;-0.15;100.00;98573.81;5003954;28;20201;-78
2021/01/18 05:51:49;;;;;;;19.33;16.67;;;;;;;-0.08;100.00;98577.78;5003984;28;20489;-79
2021/01/18 05:54:22;;;;;;;21.37;17.17;;;;;;;-0.03;100.00;98577.50;5005059;28;20209;-80
2021/01/18 05:56:52;;;;;;;20.10;17.17;;;;;;;-0.18;100.00;98582.63;4999710;28;20201;-79
2021/01/18 05:59:21;;;;;;;22.10;18.23;;;;;;;-0.01;100.00;98583.47;4999635;28;20201;-79
2021/01/18 06:01:49;;;;;;;21.50;16.87;;;;;;;-0.08;100.00;98584.72;5005293;28;20220;-79
2021/01/18 06:04:18;;;;;;;20.10;16.90;;;;;;;-0.11;100.00;98577.94;5013138;28;20197;-79
2021/01/18 06:06:53;;;;;;;19.90;16.67;;;;;;;-0.11;100.00;98584.91;5000466;28;20312;-80
2021/01/18 06:09:21;;;;;;;20.37;16.60;;;;;;;-0.08;100.00;98592.53;5008174;28;20669;-79
2021/01/18 06:11:48;;;;;;;20.90;16.67;;;;;;;-0.04;100.00;98597.53;5011026;28;20315;-79
2021/01/18 06:14:18;;;;;;;21.20;16.07;;;;;;;-0.05;100.00;98594.97;4975063;28;752507;-77
2021/01/18 06:16:46;;;;;;;21.73;16.37;;;;;;;-0.04;100.00;98601.88;5007546;28;20201;-77
2021/01/18 06:19:20;;;;;;;19.93;16.17;;;;;;;-0.05;100.00;98595.84;5008970;28;20216;-78
2021/01/18 06:21:49;;;;;;;19.10;15.63;;;;;;;-0.02;100.00;98594.81;5009354;28;20251;-77
2021/01/18 06:24:22;;;;;;;23.10;16.30;;;;;;;0.01;100.00;98599.03;5006371;28;20513;-78
2021/01/18 06:26:49;;;;;;;22.73;16.33;;;;;;;-0.08;100.00;98602.97;5004148;28;20222;-77
2021/01/18 06:29:41;;;;;;;20.03;15.13;;;;;;;-0.03;100.00;98603.56;5007456;28;20554;-76
2021/01/18 06:32:09;;;;;;;18.97;15.53;;;;;;;-0.08;100.00;98600.38;4984874;28;20586;-77
2021/01/18 06:34:36;;;;;;;19.17;15.67;;;;;;;-0.10;100.00;98600.47;5004939;28;20465;-77
2021/01/18 06:37:04;;;;;;;18.50;16.47;;;;;;;-0.24;100.00;98600.31;5009886;28;20205;-77
2021/01/18 06:39:32;;;;;;;21.03;16.80;;;;;;;-0.21;100.00;98597.56;5003031;28;20218;-76
2021/01/18 06:42:01;;;;;;;18.83;15.70;;;;;;;-0.28;100.00;98599.66;5007766;28;20615;-77
2021/01/18 06:44:35;;;;;;;19.10;15.83;;;;;;;-0.30;100.00;98601.50;5010077;28;20593;-76
2021/01/18 06:47:03;;;;;;;17.93;15.77;;;;;;;-0.30;100.00;98617.97;5001120;28;20228;-78
2021/01/18 06:49:30;;;;;;;19.43;15.43;;;;;;;-0.29;100.00;98616.22;5010714;28;20507;-79
2021/01/18 06:51:58;;;;;;;18.70;16.13;;;;;;;-0.36;100.00;98623.50;5015597;28;20254;-77
2021/01/18 06:54:28;;;;;;;23.40;16.97;;;;;;;-0.27;100.00;98619.59;5001317;28;20208;-74
2021/01/18 06:57:14;;;;;;;22.83;16.20;;;;;;;-0.37;100.00;98629.63;5007230;28;20232;-73
2021/01/18 06:59:59;;;;;;;17.40;14.77;;;;;;;-0.32;100.00;98630.22;5005317;28;20205;-76
2021/01/18 07:02:27;;;;;;;17.13;14.57;;;;;;;-0.39;100.00;98626.25;5008711;28;20239;-76
2021/01/18 07:05:09;;;;;;;19.70;16.17;;;;;;;-0.27;100.00;98630.00;5005940;28;20706;-75
2021/01/18 07:07:38;;;;;;;18.10;14.20;;;;;;;-0.37;100.00;98632.22;5001395;28;20234;-78
2021/01/18 07:10:06;;;;;;;18.70;16.27;;;;;;;-0.41;100.00;98633.31;5005369;28;20209;-76
2021/01/18 07:12:34;;;;;;;20.07;15.40;;;;;;;-0.36;100.00;98644.34;5002105;28;20221;-76
2021/01/18 07:15:04;;;;;;;20.87;14.57;;;;;;;-0.43;100.00;98645.56;4998073;28;20596;-75
2021/01/18 07:17:52;;;;;;;17.40;15.53;;;;;;;-0.35;100.00;98647.78;5002686;28;20259;-77
2021/01/18 07:20:25;;;;;;;17.33;14.80;;;;;;;-0.45;100.00;98650.84;5003196;28;20237;-73
2021/01/18 07:23:38;;;;;;;21.77;16.27;;;;;;;-0.55;100.00;98657.44;5006679;28;21032;-76
2021/01/18 07:26:07;;;;;;;21.00;17.33;;;;;;;-0.51;100.00;98656.38;5006986;28;20201;-74
2021/01/18 07:28:35;;;;;;;24.93;22.33;;;;;;;-0.51;100.00;98664.19;5004300;28;20247;-74
2021/01/18 07:31:02;;;;;;;24.93;22.37;;;;;;;-0.55;100.00;98664.44;5005757;28;20209;-74
2021/01/18 07:33:29;;;;;;;19.23;16.23;;;;;;;-0.53;100.00;98666.03;5005962;28;20229;-73
2021/01/18 07:35:58;;;;;;;16.70;14.93;;;;;;;-0.55;100.00;98662.66;5006520;28;20208;-71
2021/01/18 07:38:26;;;;;;;17.87;14.97;;;;;;;-0.45;100.00;98674.28;5010266;28;20249;-74
2021/01/18 07:41:13;;;;;;;18.13;15.60;;;;;;;-0.43;100.00;98682.03;5007191;28;20212;-75
2021/01/18 07:43:42;;;;;;;15.93;13.60;;;;;;;-0.27;100.00;98682.09;5005394;28;20284;-75
2021/01/18 07:46:38;;;;;;;16.80;13.47;;;;;;;-0.34;100.00;98684.16;5006094;28;20681;-75
2021/01/18 07:49:41;;;;;;;24.67;17.97;;;;;;;-0.28;100.00;98685.63;5010050;28;20626;-75
2021/01/18 07:52:32;;;;;;;15.23;13.63;;;;;;;-0.13;100.00;98693.56;5005575;28;20568;-75
2021/01/18 07:55:00;;;;;;;23.83;20.77;;;;;;;-0.24;100.00;98688.91;4991818;28;20585;-73
2021/01/18 07:57:32;;;;;;;16.97;13.17;;;;;;;-0.15;100.00;98697.09;5005014;28;20208;-68
2021/01/18 08:00:39;;;;;;;17.07;14.23;;;;;;;-0.10;100.00;98690.78;5002139;28;20400;-68
2021/01/18 08:03:25;;;;;;;16.17;12.80;;;;;;;-0.13;100.00;98688.34;5002765;28;20228;-68
2021/01/18 08:06:08;;;;;;;15.77;14.07;;;;;;;-0.18;100.00;98692.03;5006743;28;20307;-74
2021/01/18 08:08:36;;;;;;;23.37;13.97;;;;;;;-0.10;100.00;98693.41;5006191;28;20455;-73
2021/01/18 08:11:15;;;;;;;18.37;13.70;;;;;;;-0.14;100.00;98703.16;5002015;28;20224;-77
2021/01/18 08:13:50;;;;;;;15.40;12.83;;;;;;;-0.12;100.00;98696.09;5008698;28;20217;-76
2021/01/18 08:16:22;;;;;;;23.27;20.73;;;;;;;-0.15;100.00;98701.47;5005362;28;20664;-77
2021/01/18 08:18:55;;;;;;;15.67;14.00;;;;;;;-0.16;100.00;98712.81;5004550;28;20205;-75
2021/01/18 08:21:44;;;;;;;17.73;13.67;;;;;;;-0.19;100.00;98713.81;5006817;28;20212;-72
2021/01/18 08:24:37;;;;;;;14.43;12.93;;;;;;;-0.21;100.00;98713.03;5007272;28;20744;-75
2021/01/18 08:27:05;;;;;;;15.37;13.37;;;;;;;-0.20;100.00;98703.44;5002181;28;20235;-76
2021/01/18 08:29:40;;;;;;;14.03;12.63;;;;;;;-0.13;100.00;98717.00;5007219;28;20703;-75
2021/01/18 08:32:35;;;;;;;18.43;13.40;;;;;;;-0.12;100.00;98713.50;5007697;28;20219;-75
2021/01/18 08:35:06;;;;;;;18.17;13.63;;;;;;;-0.16;100.00;98715.44;5008221;28;20511;-75
2021/01/18 08:37:34;;;;;;;21.97;17.53;;;;;;;-0.12;100.00;98727.38;5006554;28;20486;-75
2021/01/18 08:40:06;;;;;;;19.83;17.23;;;;;;;-0.19;100.00;98724.22;5003126;28;20855;-76
2021/01/18 08:42:35;;;;;;;16.87;13.23;;;;;;;-0.33;100.00;98729.31;5007298;28;20691;-78
2021/01/18 08:45:04;;;;;;;19.57;15.13;;;;;;;-0.36;100.00;98727.69;5013698;28;20460;-76
2021/01/18 08:47:40;;;;;;;17.57;15.23;;;;;;;-0.47;100.00;98728.22;5003161;28;20862;-76
2021/01/18 08:50:22;;;;;;;20.43;15.17;;;;;;;-0.52;100.00;98724.16;5006438;28;20448;-76
2021/01/18 08:53:22;;;;;;;14.57;12.77;;;;;;;-0.52;100.00;98735.41;5010631;28;20406;-76
2021/01/18 08:55:50;;;;;;;16.27;13.97;;;;;;;-0.51;100.00;98738.88;4980309;28;20454;-74
2021/01/18 08:58:33;;;;;;;16.30;14.53;;;;;;;-0.48;100.00;98731.72;5006550;28;20947;-76
2021/01/18 09:01:00;;;;;;;15.73;13.43;;;;;;;-0.55;100.00;98732.13;4994498;28;20450;-76
2021/01/18 09:03:28;;;;;;;18.80;16.80;;;;;;;-0.45;100.00;98747.19;5005655;28;20492;-75
2021/01/18 09:05:57;;;;;;;14.93;13.37;;;;;;;-0.51;100.00;98737.09;5007780;28;20209;-77
2021/01/18 09:08:26;;;;;;;15.47;13.07;;;;;;;-0.50;100.00;98737.94;5005900;28;20257;-74
2021/01/18 09:10:54;;;;;;;13.83;12.43;;;;;;;-0.52;100.00;98739.78;5011760;28;20201;-75
2021/01/18 09:13:22;;;;;;;19.17;17.13;;;;;;;-0.45;100.00;98741.16;5005204;28;20809;-77
2021/01/18 09:15:50;;;;;;;14.20;12.70;;;;;;;-0.38;100.00;98734.72;5005463;28;20951;-76
2021/01/18 09:18:17;;;;;;;15.70;14.20;;;;;;;-0.39;100.00;98738.25;5004745;28;20476;-76
2021/01/18 09:20:45;;;;;;;14.90;13.40;;;;;;;-0.37;100.00;98733.81;5001844;28;20817;-78
2021/01/18 09:23:15;;;;;;;14.73;13.17;;;;;;;-0.25;100.00;98734.09;5009606;28;20624;-76
2021/01/18 09:25:59;;;;;;;14.63;13.10;;;;;;;-0.17;100.00;98745.00;5004200;28;20214;-76
2021/01/18 09:28:27;;;;;;;13.30;11.97;;;;;;;-0.08;100.00;98741.94;5009413;28;20232;-75
2021/01/18 09:30:54;;;;;;;12.87;11.57;;;;;;;-0.15;100.00;98743.16;5009792;28;20208;-76
2021/01/18 09:33:26;;;;;;;12.33;11.13;;;;;;;-0.06;100.00;98736.63;5011460;28;20221;-75
2021/01/18 09:35:54;;;;;;;14.37;12.97;;;;;;;0.04;100.00;98745.69;5011254;28;20243;-76
2021/01/18 09:38:22;;;;;;;13.40;12.00;;;;;;;0.12;100.00;98755.69;5007866;28;20292;-77
2021/01/18 09:40:49;;;;;;;217.10;69.30;;;;;;;0.23;100.00;98749.91;5004999;28;20205;-75
2021/01/18 09:43:19;;;;;;;33.87;16.87;;;;;;;0.11;100.00;98748.78;5011285;28;20671;-76
2021/01/18 09:45:56;;;;;;;24.23;16.73;;;;;;;0.06;100.00;98748.19;5011328;28;20545;-76
2021/01/18 09:48:25;;;;;;;13.90;12.00;;;;;;;-0.02;100.00;98746.81;5005720;28;20213;-76
2021/01/18 09:51:00;;;;;;;26.30;19.10;;;;;;;0.04;100.00;98743.06;5007125;28;20212;-76
2021/01/18 09:53:29;;;;;;;12.07;10.80;;;;;;;0.19;100.00;98740.56;5004837;28;20264;-75
2021/01/18 09:56:00;;;;;;;13.43;12.10;;;;;;;0.18;100.00;98739.72;5007845;28;20675;-76
2021/01/18 09:58:33;;;;;;;11.70;10.50;;;;;;;0.19;100.00;98737.97;5008111;28;20204;-75
2021/01/18 10:01:01;;;;;;;13.13;11.53;;;;;;;0.13;100.00;98737.38;5006061;28;20501;-76
2021/01/18 10:03:31;;;;;;;12.20;11.10;;;;;;;0.23;100.00;98737.75;5003207;28;20732;-76
2021/01/18 10:06:06;;;;;;;11.43;10.33;;;;;;;0.25;100.00;98732.44;5014552;28;20947;-75
2021/01/18 10:08:36;;;;;;;10.27;9.37;;;;;;;0.35;100.00;98730.19;5001417;28;20786;-76
2021/01/18 10:11:04;;;;;;;12.47;11.17;;;;;;;0.34;100.00;98736.31;5003957;28;20200;-76
2021/01/18 10:13:31;;;;;;;13.30;10.67;;;;;;;0.32;100.00;98735.56;5001137;28;20237;-74
2021/01/18 10:16:07;;;;;;;11.63;10.37;;;;;;;0.40;100.00;98741.22;5006578;28;20200;-75
2021/01/18 10:18:37;;;;;;;12.07;10.97;;;;;;;0.52;100.00;98740.56;5012897;28;20477;-75
2021/01/18 10:21:05;;;;;;;10.93;9.93;;;;;;;0.39;100.00;98742.13;5000744;28;20212;-77
2021/01/18 10:23:34;;;;;;;12.37;11.20;;;;;;;0.57;100.00;98737.72;5006569;28;20234;-76
2021/01/18 10:26:21;;;;;;;11.90;10.80;;;;;;;0.53;100.00;98733.59;5012163;28;20677;-74
2021/01/18 10:28:52;;;;;;;12.43;11.23;;;;;;;0.39;100.00;98735.19;5011747;28;20225;-75
2021/01/18 10:31:19;;;;;;;12.47;11.27;;;;;;;0.50;100.00;98728.53;5012777;28;20677;-75
2021/01/18 10:34:11;;;;;;;11.43;10.23;;;;;;;0.64;100.00;98730.41;5010767;28;20208;-76
2021/01/18 10:36:40;;;;;;;13.70;11.57;;;;;;;0.55;100.00;98724.72;5012567;28;20207;-75
2021/01/18 10:39:07;;;;;;;12.50;10.67;;;;;;;0.69;100.00;98731.00;5006485;28;20213;-76
2021/01/18 10:41:35;;;;;;;12.53;11.23;;;;;;;0.84;100.00;98742.38;5007375;28;20256;-77
2021/01/18 10:44:14;;;;;;;12.50;11.33;;;;;;;0.80;100.00;98733.84;5009184;28;20208;-76
2021/01/18 10:46:47;;;;;;;12.43;11.23;;;;;;;0.52;100.00;98726.69;5007064;28;20280;-76
2021/01/18 10:49:23;;;;;;;12.33;11.03;;;;;;;0.49;100.00;98734.69;5013739;28;20229;-78
2021/01/18 10:52:00;;;;;;;13.13;11.73;;;;;;;0.78;100.00;98729.66;5005160;28;20237;-76
2021/01/18 10:54:27;;;;;;;11.93;10.57;;;;;;;0.65;100.00;98729.47;5011194;28;20200;-75
2021/01/18 10:56:56;;;;;;;12.00;10.33;;;;;;;0.59;100.00;98730.63;5007023;28;20665;-76
2021/01/18 10:59:24;;;;;;;12.17;10.60;;;;;;;0.55;100.00;98724.72;5013342;28;20201;-76
2021/01/18 11:02:04;;;;;;;11.20;10.10;;;;;;;0.61;100.00;98727.97;5006561;28;20616;-76
2021/01/18 11:04:36;;;;;;;13.77;12.23;;;;;;;0.55;100.00;98724.72;5007006;28;20283;-78
2021/01/18 11:07:03;;;;;;;13.73;11.47;;;;;;;0.62;100.00;98735.69;5011417;28;20213;-78
2021/01/18 11:09:32;;;;;;;11.77;10.20;;;;;;;0.56;100.00;98733.41;5012430;28;20228;-76
2021/01/18 11:12:00;;;;;;;15.53;13.33;;;;;;;0.60;100.00;98745.38;5007254;28;20225;-75
2021/01/18 11:14:28;;;;;;;13.10;11.70;;;;;;;0.61;100.00;98746.22;5015578;28;20212;-77
2021/01/18 11:16:57;;;;;;;14.10;10.87;;;;;;;0.62;100.00;98742.69;5012818;28;20216;-75
2021/01/18 11:19:24;;;;;;;14.33;11.73;;;;;;;0.61;100.00;98735.78;5005454;28;20686;-75
2021/01/18 11:21:51;;;;;;;15.53;11.40;;;;;;;0.50;100.00;98739.78;5011038;28;20227;-77
2021/01/18 11:24:19;;;;;;;16.10;12.17;;;;;;;0.50;100.00;98738.97;5008544;28;20201;-76
2021/01/18 11:26:48;;;;;;;13.23;11.83;;;;;;;0.52;100.00;98743.16;5009601;28;20255;-76
2021/01/18 11:29:16;;;;;;;17.90;12.77;;;;;;;0.59;100.00;98733.25;5001705;28;20230;-73